Insignia — V7DM2 — position and weather

sailwx.info

Track history (hours):
 
Tides and Currents Weather Stations Pressure Air Temp Water Temp Dewpoint Dewpoint Depression Visibility Wind Speed Wind Dir Waves Ship Positions

Insignia

Last reported at 2017-Oct-13 06:10 UTC. Time now 2017-Oct-19 23:44 UTC.
Position N 43°37' W 068°45'.

Length 180 m; draft 5.9 m.

Type: Passenger vessel. MMSI: 538001663.

Date/timePositionNaut miles runAvg speedWind from/ knotsBaromVisibWave heightAir tempDewpointWater temp
2017-Oct-13 06:10N 43°37' W 068°45'816.6
2017-Oct-13 05:40N 43°32' W 068°53'417.1
2017-Oct-13 05:26N 43°30' W 068°58'6216.9
2017-Oct-13 01:47N 42°51' W 070°03'516.4
2017-Oct-13 01:30N 42°48' W 070°08'816.3
2017-Oct-13 01:00N 42°42' W 070°17'816.7
2017-Oct-13 00:30N 42°37' W 070°25'816.7
2017-Oct-13 00:00N 42°32' W 070°34'816.5
2017-Oct-12 23:30N 42°27' W 070°43'815.4
2017-Oct-12 23:00N 42°24' W 070°53'611.4
2017-Oct-12 22:30N 42°20' W 070°58'3 1.3
2017-Oct-12 20:35N 42°21' W 071°02'0 0.0
2017-Oct-12 20:29N 42°21' W 071°02'0 0.0
2017-Oct-12 19:59N 42°21' W 071°02'0 0.0
2017-Oct-12 19:29N 42°21' W 071°02'0 0.0
2017-Oct-12 18:59N 42°21' W 071°02'0 0.0
2017-Oct-12 18:29N 42°21' W 071°02'0 0.0
2017-Oct-12 17:59N 42°21' W 071°02'0 0.0
2017-Oct-12 17:29N 42°21' W 071°02'0 0.0
2017-Oct-12 16:59N 42°21' W 071°02'0 0.0
2017-Oct-12 16:29N 42°21' W 071°02'0 0.0
2017-Oct-12 15:47N 42°21' W 071°02'0 0.0
2017-Oct-12 15:17N 42°21' W 071°02'0 0.0
2017-Oct-12 13:35N 42°21' W 071°02'0 0.0
2017-Oct-12 13:29N 42°21' W 071°02'0 0.0
2017-Oct-12 12:56N 42°21' W 071°02'0 0.0
2017-Oct-12 12:29N 42°21' W 071°02'0 0.0
2017-Oct-12 11:53N 42°21' W 071°02'0 0.0
2017-Oct-12 11:29N 42°21' W 071°02'1 2.6
2017-Oct-12 11:00N 42°20' W 071°00'3 6.3
2017-Oct-12 10:31N 42°21' W 070°56'510.0
2017-Oct-12 10:00N 42°24' W 070°50'4 8.7
2017-Oct-12 09:30N 42°22' W 070°45'5 9.6
2017-Oct-12 09:00N 42°19' W 070°41'4 8.6
2017-Oct-12 08:30N 42°15' W 070°37'3 6.4
2017-Oct-12 08:00N 42°13' W 070°34'3 6.3
2017-Oct-12 07:30N 42°10' W 070°32'3 6.1
2017-Oct-12 06:58N 42°08' W 070°29'28 4.5
2017-Oct-12 00:39N 41°41' W 070°41'312.1
2017-Oct-12 00:27N 41°38' W 070°42'612.8
2017-Oct-11 23:57N 41°33' W 070°46'613.3
2017-Oct-11 23:31N 41°30' W 070°52'712.9
2017-Oct-11 23:00N 41°27' W 071°00'144 6.3
2017-Oct-11 00:00N 40°30' W 073°56'815.8
2017-Oct-10 23:30N 40°36' W 074°03'714.8
2017-Oct-10 23:00N 40°43' W 074°01'3 5.5
2017-Oct-10 22:29N 40°46' W 073°60'0 0.0
2017-Oct-10 21:59N 40°46' W 073°60'0 0.0
2017-Oct-10 21:30N 40°46' W 073°60'0 0.0
2017-Oct-10 21:00N 40°46' W 073°60'0 0.0
2017-Oct-10 20:30N 40°46' W 073°60'0 0.0
2017-Oct-10 20:00N 40°46' W 073°60'0 0.0
2017-Oct-10 19:30N 40°46' W 073°60'0 0.0
2017-Oct-10 19:00N 40°46' W 073°60'0 0.0
2017-Oct-10 18:30N 40°46' W 073°60'0 0.0
2017-Oct-10 18:00N 40°46' W 073°60'0 0.0
2017-Oct-10 17:30N 40°46' W 073°60'0 0.0
2017-Oct-10 17:00N 40°46' W 073°60'0 0.0
2017-Oct-10 16:30N 40°46' W 073°60'0 0.0
2017-Oct-10 16:00N 40°46' W 073°60'0 0.0
2017-Oct-10 15:30N 40°46' W 073°60'0 0.0
2017-Oct-10 15:00N 40°46' W 073°60'0 0.0
2017-Oct-10 14:00N 40°46' W 073°60'0 0.0
2017-Oct-10 13:30N 40°46' W 073°60'0 0.0
2017-Oct-10 13:00N 40°46' W 073°60'0 0.0
2017-Oct-10 12:30N 40°46' W 073°60'0 0.0
2017-Oct-10 12:00N 40°46' W 073°60'0 0.0
2017-Oct-10 11:30N 40°46' W 073°60'0 0.4
2017-Oct-10 11:00N 40°46' W 074°00'3 5.9
2017-Oct-10 10:30N 40°43' W 074°01'611.7
2017-Oct-10 10:00N 40°37' W 074°03'713.8
2017-Oct-10 09:30N 40°31' W 073°59'714.1
2017-Oct-10 09:00N 40°28' W 073°51'4 9.0
2017-Oct-10 08:30N 40°27' W 073°45'1611.2
2017-Oct-10 07:04N 40°28' W 073°24'111.1
2017-Oct-10 06:58N 40°28' W 073°22'611.7
2017-Oct-10 06:30N 40°28' W 073°15'158 5.2
2017-Oct-08 23:50N 42°08' W 070°32'516.4
2017-Oct-08 23:30N 42°13' W 070°36'916.8
2017-Oct-08 23:00N 42°19' W 070°43'815.9
2017-Oct-08 22:30N 42°23' W 070°53'612.2
2017-Oct-08 22:00N 42°20' W 071°00'1 1.8
2017-Oct-08 21:28N 42°21' W 071°02'0 0.0
2017-Oct-08 20:58N 42°21' W 071°02'0 0.0
2017-Oct-08 20:28N 42°21' W 071°02'0 0.0
2017-Oct-08 19:58N 42°21' W 071°02'0 0.0
2017-Oct-08 19:13N 42°21' W 071°02'0 0.0
2017-Oct-08 18:55N 42°21' W 071°02'0 0.0
2017-Oct-08 18:28N 42°21' W 071°02'0 0.0
2017-Oct-08 17:58N 42°21' W 071°02'0 0.0
2017-Oct-08 17:28N 42°21' W 071°02'0 0.0
2017-Oct-08 16:58N 42°21' W 071°02'0 0.0
2017-Oct-08 16:28N 42°21' W 071°02'0 0.0
2017-Oct-08 15:58N 42°21' W 071°02'0 0.0
2017-Oct-08 15:28N 42°21' W 071°02'0 0.0
2017-Oct-08 14:58N 42°21' W 071°02'0 0.0
2017-Oct-08 14:31N 42°21' W 071°02'0 0.0
2017-Oct-08 14:01N 42°21' W 071°02'0 0.0
2017-Oct-08 13:31N 42°21' W 071°02'0 0.0
2017-Oct-08 12:57N 42°21' W 071°02'0 0.0
2017-Oct-08 12:27N 42°21' W 071°02'0 0.0
2017-Oct-08 12:00N 42°21' W 071°02'0 0.1
2017-Oct-08 11:30N 42°21' W 071°01'3 7.0
2017-Oct-08 11:00N 42°20' W 070°57'612.5
2017-Oct-08 10:30N 42°24' W 070°50'510.3
2017-Oct-08 10:01N 42°27' W 070°44'611.8
2017-Oct-08 09:31N 42°30' W 070°38'611.8
2017-Oct-08 09:00N 42°34' W 070°31'611.4
2017-Oct-08 08:29N 42°38' W 070°25'611.9
2017-Oct-08 08:01N 42°41' W 070°19'611.7
2017-Oct-08 07:30N 42°45' W 070°13'611.7
2017-Oct-08 07:00N 42°48' W 070°06'  
Track history (hours):
 
Tides and Currents Weather Stations Pressure Air Temp Water Temp Dewpoint Dewpoint Depression Visibility Wind Speed Wind Dir Waves Ship Positions

Insignia

Last reported at 2017-Oct-13 06:10 UTC. Time now 2017-Oct-19 23:44 UTC.
Position N 43°37' W 068°45'.

Length 180 m; draft 5.9 m.

Type: Passenger vessel. MMSI: 538001663.

Date/timePositionNaut miles runAvg speedWind from/ knotsBaromVisibWave heightAir tempDewpointWater temp
2017-Oct-13 06:10N 43°37' W 068°45'816.6
2017-Oct-13 05:40N 43°32' W 068°53'417.1
2017-Oct-13 05:26N 43°30' W 068°58'6216.9
2017-Oct-13 01:47N 42°51' W 070°03'516.4
2017-Oct-13 01:30N 42°48' W 070°08'816.3
2017-Oct-13 01:00N 42°42' W 070°17'816.7
2017-Oct-13 00:30N 42°37' W 070°25'816.7
2017-Oct-13 00:00N 42°32' W 070°34'816.5
2017-Oct-12 23:30N 42°27' W 070°43'815.4
2017-Oct-12 23:00N 42°24' W 070°53'611.4
2017-Oct-12 22:30N 42°20' W 070°58'3 1.3
2017-Oct-12 20:35N 42°21' W 071°02'0 0.0
2017-Oct-12 20:29N 42°21' W 071°02'0 0.0
2017-Oct-12 19:59N 42°21' W 071°02'0 0.0
2017-Oct-12 19:29N 42°21' W 071°02'0 0.0
2017-Oct-12 18:59N 42°21' W 071°02'0 0.0
2017-Oct-12 18:29N 42°21' W 071°02'0 0.0
2017-Oct-12 17:59N 42°21' W 071°02'0 0.0
2017-Oct-12 17:29N 42°21' W 071°02'0 0.0
2017-Oct-12 16:59N 42°21' W 071°02'0 0.0
2017-Oct-12 16:29N 42°21' W 071°02'0 0.0
2017-Oct-12 15:47N 42°21' W 071°02'0 0.0
2017-Oct-12 15:17N 42°21' W 071°02'0 0.0
2017-Oct-12 13:35N 42°21' W 071°02'0 0.0
2017-Oct-12 13:29N 42°21' W 071°02'0 0.0
2017-Oct-12 12:56N 42°21' W 071°02'0 0.0
2017-Oct-12 12:29N 42°21' W 071°02'0 0.0
2017-Oct-12 11:53N 42°21' W 071°02'0 0.0
2017-Oct-12 11:29N 42°21' W 071°02'1 2.6
2017-Oct-12 11:00N 42°20' W 071°00'3 6.3
2017-Oct-12 10:31N 42°21' W 070°56'510.0
2017-Oct-12 10:00N 42°24' W 070°50'4 8.7
2017-Oct-12 09:30N 42°22' W 070°45'5 9.6
2017-Oct-12 09:00N 42°19' W 070°41'4 8.6
2017-Oct-12 08:30N 42°15' W 070°37'3 6.4
2017-Oct-12 08:00N 42°13' W 070°34'3 6.3
2017-Oct-12 07:30N 42°10' W 070°32'3 6.1
2017-Oct-12 06:58N 42°08' W 070°29'28 4.5
2017-Oct-12 00:39N 41°41' W 070°41'312.1
2017-Oct-12 00:27N 41°38' W 070°42'612.8
2017-Oct-11 23:57N 41°33' W 070°46'613.3
2017-Oct-11 23:31N 41°30' W 070°52'712.9
2017-Oct-11 23:00N 41°27' W 071°00'144 6.3
2017-Oct-11 00:00N 40°30' W 073°56'815.8
2017-Oct-10 23:30N 40°36' W 074°03'714.8
2017-Oct-10 23:00N 40°43' W 074°01'3 5.5
2017-Oct-10 22:29N 40°46' W 073°60'0 0.0
2017-Oct-10 21:59N 40°46' W 073°60'0 0.0
2017-Oct-10 21:30N 40°46' W 073°60'0 0.0
2017-Oct-10 21:00N 40°46' W 073°60'0 0.0
2017-Oct-10 20:30N 40°46' W 073°60'0 0.0
2017-Oct-10 20:00N 40°46' W 073°60'0 0.0
2017-Oct-10 19:30N 40°46' W 073°60'0 0.0
2017-Oct-10 19:00N 40°46' W 073°60'0 0.0
2017-Oct-10 18:30N 40°46' W 073°60'0 0.0
2017-Oct-10 18:00N 40°46' W 073°60'0 0.0
2017-Oct-10 17:30N 40°46' W 073°60'0 0.0
2017-Oct-10 17:00N 40°46' W 073°60'0 0.0
2017-Oct-10 16:30N 40°46' W 073°60'0 0.0
2017-Oct-10 16:00N 40°46' W 073°60'0 0.0
2017-Oct-10 15:30N 40°46' W 073°60'0 0.0
2017-Oct-10 15:00N 40°46' W 073°60'0 0.0
2017-Oct-10 14:00N 40°46' W 073°60'0 0.0
2017-Oct-10 13:30N 40°46' W 073°60'0 0.0
2017-Oct-10 13:00N 40°46' W 073°60'0 0.0
2017-Oct-10 12:30N 40°46' W 073°60'0 0.0
2017-Oct-10 12:00N 40°46' W 073°60'0 0.0
2017-Oct-10 11:30N 40°46' W 073°60'0 0.4
2017-Oct-10 11:00N 40°46' W 074°00'3 5.9
2017-Oct-10 10:30N 40°43' W 074°01'611.7
2017-Oct-10 10:00N 40°37' W 074°03'713.8
2017-Oct-10 09:30N 40°31' W 073°59'714.1
2017-Oct-10 09:00N 40°28' W 073°51'4 9.0
2017-Oct-10 08:30N 40°27' W 073°45'1611.2
2017-Oct-10 07:04N 40°28' W 073°24'111.1
2017-Oct-10 06:58N 40°28' W 073°22'611.7
2017-Oct-10 06:30N 40°28' W 073°15'158 5.2
2017-Oct-08 23:50N 42°08' W 070°32'516.4
2017-Oct-08 23:30N 42°13' W 070°36'916.8
2017-Oct-08 23:00N 42°19' W 070°43'815.9
2017-Oct-08 22:30N 42°23' W 070°53'612.2
2017-Oct-08 22:00N 42°20' W 071°00'1 1.8
2017-Oct-08 21:28N 42°21' W 071°02'0 0.0
2017-Oct-08 20:58N 42°21' W 071°02'0 0.0
2017-Oct-08 20:28N 42°21' W 071°02'0 0.0
2017-Oct-08 19:58N 42°21' W 071°02'0 0.0
2017-Oct-08 19:13N 42°21' W 071°02'0 0.0
2017-Oct-08 18:55N 42°21' W 071°02'0 0.0
2017-Oct-08 18:28N 42°21' W 071°02'0 0.0
2017-Oct-08 17:58N 42°21' W 071°02'0 0.0
2017-Oct-08 17:28N 42°21' W 071°02'0 0.0
2017-Oct-08 16:58N 42°21' W 071°02'0 0.0
2017-Oct-08 16:28N 42°21' W 071°02'0 0.0
2017-Oct-08 15:58N 42°21' W 071°02'0 0.0
2017-Oct-08 15:28N 42°21' W 071°02'0 0.0
2017-Oct-08 14:58N 42°21' W 071°02'0 0.0
2017-Oct-08 14:31N 42°21' W 071°02'0 0.0
2017-Oct-08 14:01N 42°21' W 071°02'0 0.0
2017-Oct-08 13:31N 42°21' W 071°02'0 0.0
2017-Oct-08 12:57N 42°21' W 071°02'0 0.0
2017-Oct-08 12:27N 42°21' W 071°02'0 0.0
2017-Oct-08 12:00N 42°21' W 071°02'0 0.1
2017-Oct-08 11:30N 42°21' W 071°01'3 7.0
2017-Oct-08 11:00N 42°20' W 070°57'612.5
2017-Oct-08 10:30N 42°24' W 070°50'510.3
2017-Oct-08 10:01N 42°27' W 070°44'611.8
2017-Oct-08 09:31N 42°30' W 070°38'611.8
2017-Oct-08 09:00N 42°34' W 070°31'611.4
2017-Oct-08 08:29N 42°38' W 070°25'611.9
2017-Oct-08 08:01N 42°41' W 070°19'611.7
2017-Oct-08 07:30N 42°45' W 070°13'611.7
2017-Oct-08 07:00N 42°48' W 070°06'  

Dump ship's entire track history